sensor_id;sensor_type;location;lat;lon;timestamp;temperature;humidity
32787;DHT22;19139;49.372;8.580;2022-07-29T00:01:06;25.20;82.40
32787;DHT22;19139;49.372;8.580;2022-07-29T00:03:38;25.20;82.60
32787;DHT22;19139;49.372;8.580;2022-07-29T00:06:05;25.20;82.60
32787;DHT22;19139;49.372;8.580;2022-07-29T00:08:37;25.20;83.20
32787;DHT22;19139;49.372;8.580;2022-07-29T00:11:04;25.20;83.20
32787;DHT22;19139;49.372;8.580;2022-07-29T00:13:35;25.20;83.60
32787;DHT22;19139;49.372;8.580;2022-07-29T00:16:02;25.20;84.10
32787;DHT22;19139;49.372;8.580;2022-07-29T00:18:33;25.20;84.50
32787;DHT22;19139;49.372;8.580;2022-07-29T00:21:05;25.10;85.10
32787;DHT22;19139;49.372;8.580;2022-07-29T00:23:36;25.20;85.60
32787;DHT22;19139;49.372;8.580;2022-07-29T00:26:08;25.10;86.10
32787;DHT22;19139;49.372;8.580;2022-07-29T00:28:35;25.10;86.40
32787;DHT22;19139;49.372;8.580;2022-07-29T00:31:06;25.10;87.00
32787;DHT22;19139;49.372;8.580;2022-07-29T00:33:34;25.10;87.30
32787;DHT22;19139;49.372;8.580;2022-07-29T00:36:01;25.10;87.60
32787;DHT22;19139;49.372;8.580;2022-07-29T00:38:27;25.00;87.80
32787;DHT22;19139;49.372;8.580;2022-07-29T00:40:54;25.00;88.40
32787;DHT22;19139;49.372;8.580;2022-07-29T00:43:25;25.00;88.60
32787;DHT22;19139;49.372;8.580;2022-07-29T00:45:57;24.90;88.90
32787;DHT22;19139;49.372;8.580;2022-07-29T00:48:24;24.80;89.00
32787;DHT22;19139;49.372;8.580;2022-07-29T00:50:57;24.80;89.20
32787;DHT22;19139;49.372;8.580;2022-07-29T00:53:25;24.80;89.30
32787;DHT22;19139;49.372;8.580;2022-07-29T00:55:58;24.80;89.30
32787;DHT22;19139;49.372;8.580;2022-07-29T00:58:26;24.90;89.40
32787;DHT22;19139;49.372;8.580;2022-07-29T01:00:58;24.90;89.30
32787;DHT22;19139;49.372;8.580;2022-07-29T01:03:24;24.90;89.50
32787;DHT22;19139;49.372;8.580;2022-07-29T01:05:56;24.80;89.80
32787;DHT22;19139;49.372;8.580;2022-07-29T01:08:23;24.80;90.10
32787;DHT22;19139;49.372;8.580;2022-07-29T01:10:55;24.60;90.30
32787;DHT22;19139;49.372;8.580;2022-07-29T01:13:22;24.60;90.50
32787;DHT22;19139;49.372;8.580;2022-07-29T01:15:56;24.60;90.60
32787;DHT22;19139;49.372;8.580;2022-07-29T01:18:35;24.50;90.70
32787;DHT22;19139;49.372;8.580;2022-07-29T01:29:44;24.60;90.60
32787;DHT22;19139;49.372;8.580;2022-07-29T01:32:21;24.70;90.70
32787;DHT22;19139;49.372;8.580;2022-07-29T01:34:59;24.70;90.70
32787;DHT22;19139;49.372;8.580;2022-07-29T01:37:33;24.70;90.80
32787;DHT22;19139;49.372;8.580;2022-07-29T01:40:03;24.70;90.80
32787;DHT22;19139;49.372;8.580;2022-07-29T01:42:44;24.70;91.00
32787;DHT22;19139;49.372;8.580;2022-07-29T01:45:25;24.70;91.00
32787;DHT22;19139;49.372;8.580;2022-07-29T01:48:05;24.70;91.10
32787;DHT22;19139;49.372;8.580;2022-07-29T01:50:44;24.70;91.00
32787;DHT22;19139;49.372;8.580;2022-07-29T01:53:38;24.70;91.20
32787;DHT22;19139;49.372;8.580;2022-07-29T01:56:10;24.70;91.30
32787;DHT22;19139;49.372;8.580;2022-07-29T01:58:39;24.60;91.30
32787;DHT22;19139;49.372;8.580;2022-07-29T02:01:09;24.60;91.60
32787;DHT22;19139;49.372;8.580;2022-07-29T02:03:38;24.60;91.60
32787;DHT22;19139;49.372;8.580;2022-07-29T02:06:07;24.50;91.60
32787;DHT22;19139;49.372;8.580;2022-07-29T02:08:35;24.60;91.70
32787;DHT22;19139;49.372;8.580;2022-07-29T02:11:08;24.50;91.70
32787;DHT22;19139;49.372;8.580;2022-07-29T02:13:41;24.60;91.90
32787;DHT22;19139;49.372;8.580;2022-07-29T02:16:14;24.60;91.80
32787;DHT22;19139;49.372;8.580;2022-07-29T02:18:49;24.60;91.80
32787;DHT22;19139;49.372;8.580;2022-07-29T02:21:24;24.60;91.80
32787;DHT22;19139;49.372;8.580;2022-07-29T02:23:59;24.50;92.00
32787;DHT22;19139;49.372;8.580;2022-07-29T02:26:32;24.50;92.10
32787;DHT22;19139;49.372;8.580;2022-07-29T02:29:05;24.50;92.00
32787;DHT22;19139;49.372;8.580;2022-07-29T02:31:33;24.50;91.90
32787;DHT22;19139;49.372;8.580;2022-07-29T02:34:08;24.30;92.20
32787;DHT22;19139;49.372;8.580;2022-07-29T02:36:35;24.30;92.50
32787;DHT22;19139;49.372;8.580;2022-07-29T02:39:07;24.20;92.40
32787;DHT22;19139;49.372;8.580;2022-07-29T02:41:51;24.20;92.30
32787;DHT22;19139;49.372;8.580;2022-07-29T02:44:25;24.20;92.40
32787;DHT22;19139;49.372;8.580;2022-07-29T02:47:23;24.10;92.60
32787;DHT22;19139;49.372;8.580;2022-07-29T02:49:57;24.00;92.60
32787;DHT22;19139;49.372;8.580;2022-07-29T02:52:41;24.00;92.70
32787;DHT22;19139;49.372;8.580;2022-07-29T02:57:49;24.00;92.80
32787;DHT22;19139;49.372;8.580;2022-07-29T03:00:23;23.90;92.90
32787;DHT22;19139;49.372;8.580;2022-07-29T03:02:59;23.90;92.90
32787;DHT22;19139;49.372;8.580;2022-07-29T03:05:28;23.80;93.00
32787;DHT22;19139;49.372;8.580;2022-07-29T03:07:58;23.70;93.00
32787;DHT22;19139;49.372;8.580;2022-07-29T03:10:27;23.70;93.10
32787;DHT22;19139;49.372;8.580;2022-07-29T03:12:55;23.70;93.10
32787;DHT22;19139;49.372;8.580;2022-07-29T03:15:25;23.70;93.10
32787;DHT22;19139;49.372;8.580;2022-07-29T03:17:52;23.70;93.30
32787;DHT22;19139;49.372;8.580;2022-07-29T03:20:25;23.60;93.30
32787;DHT22;19139;49.372;8.580;2022-07-29T03:22:57;23.60;93.20
32787;DHT22;19139;49.372;8.580;2022-07-29T03:25:29;23.60;93.10
32787;DHT22;19139;49.372;8.580;2022-07-29T03:28:00;23.70;93.10
32787;DHT22;19139;49.372;8.580;2022-07-29T03:30:27;23.70;93.10
32787;DHT22;19139;49.372;8.580;2022-07-29T03:32:54;23.70;93.20
32787;DHT22;19139;49.372;8.580;2022-07-29T03:35:24;23.60;93.40
32787;DHT22;19139;49.372;8.580;2022-07-29T03:37:51;23.60;93.40
32787;DHT22;19139;49.372;8.580;2022-07-29T03:40:25;23.50;93.40
32787;DHT22;19139;49.372;8.580;2022-07-29T03:42:54;23.50;93.40
32787;DHT22;19139;49.372;8.580;2022-07-29T03:45:22;23.50;93.60
32787;DHT22;19139;49.372;8.580;2022-07-29T03:47:53;23.40;93.40
32787;DHT22;19139;49.372;8.580;2022-07-29T03:50:26;23.40;93.40
32787;DHT22;19139;49.372;8.580;2022-07-29T03:52:58;23.40;93.20
32787;DHT22;19139;49.372;8.580;2022-07-29T03:55:26;23.40;92.80
32787;DHT22;19139;49.372;8.580;2022-07-29T03:57:55;23.40;92.70
32787;DHT22;19139;49.372;8.580;2022-07-29T04:00:28;23.40;92.40
32787;DHT22;19139;49.372;8.580;2022-07-29T04:02:56;23.40;92.40
32787;DHT22;19139;49.372;8.580;2022-07-29T04:05:28;23.40;92.40
32787;DHT22;19139;49.372;8.580;2022-07-29T04:07:55;23.30;92.60
32787;DHT22;19139;49.372;8.580;2022-07-29T04:10:26;23.30;92.80
32787;DHT22;19139;49.372;8.580;2022-07-29T04:12:59;23.20;92.90
32787;DHT22;19139;49.372;8.580;2022-07-29T04:15:26;23.20;93.10
32787;DHT22;19139;49.372;8.580;2022-07-29T04:17:57;23.20;92.90
32787;DHT22;19139;49.372;8.580;2022-07-29T04:20:23;23.30;92.80
32787;DHT22;19139;49.372;8.580;2022-07-29T04:22:55;23.30;92.70
32787;DHT22;19139;49.372;8.580;2022-07-29T04:25:27;23.30;93.00
32787;DHT22;19139;49.372;8.580;2022-07-29T04:27:58;23.30;92.60
32787;DHT22;19139;49.372;8.580;2022-07-29T04:30:28;23.30;92.60
32787;DHT22;19139;49.372;8.580;2022-07-29T04:32:56;23.30;92.90
32787;DHT22;19139;49.372;8.580;2022-07-29T04:35:28;23.20;93.10
32787;DHT22;19139;49.372;8.580;2022-07-29T04:37:55;23.10;93.20
32787;DHT22;19139;49.372;8.580;2022-07-29T04:40:22;23.10;93.40
32787;DHT22;19139;49.372;8.580;2022-07-29T04:42:48;23.10;93.70
32787;DHT22;19139;49.372;8.580;2022-07-29T04:45:15;23.00;93.80
32787;DHT22;19139;49.372;8.580;2022-07-29T04:47:48;23.00;93.90
32787;DHT22;19139;49.372;8.580;2022-07-29T04:50:14;23.00;94.30
32787;DHT22;19139;49.372;8.580;2022-07-29T04:52:41;23.00;94.10
32787;DHT22;19139;49.372;8.580;2022-07-29T04:55:08;22.90;94.10
32787;DHT22;19139;49.372;8.580;2022-07-29T04:57:35;22.90;94.10
32787;DHT22;19139;49.372;8.580;2022-07-29T05:00:03;22.90;94.10
32787;DHT22;19139;49.372;8.580;2022-07-29T05:02:30;22.90;94.20
32787;DHT22;19139;49.372;8.580;2022-07-29T05:04:57;22.90;94.10
32787;DHT22;19139;49.372;8.580;2022-07-29T05:07:23;22.90;93.90
32787;DHT22;19139;49.372;8.580;2022-07-29T05:09:50;22.90;93.80
32787;DHT22;19139;49.372;8.580;2022-07-29T05:12:17;22.80;93.70
32787;DHT22;19139;49.372;8.580;2022-07-29T05:14:43;22.90;93.50
32787;DHT22;19139;49.372;8.580;2022-07-29T05:17:10;22.90;93.40
32787;DHT22;19139;49.372;8.580;2022-07-29T05:19:37;22.90;93.50
32787;DHT22;19139;49.372;8.580;2022-07-29T05:22:05;22.90;93.60
32787;DHT22;19139;49.372;8.580;2022-07-29T05:24:36;23.00;93.50
32787;DHT22;19139;49.372;8.580;2022-07-29T05:27:03;23.00;93.50
32787;DHT22;19139;49.372;8.580;2022-07-29T05:29:30;23.00;93.50
32787;DHT22;19139;49.372;8.580;2022-07-29T05:32:10;23.00;93.50
32787;DHT22;19139;49.372;8.580;2022-07-29T05:34:37;23.00;93.60
32787;DHT22;19139;49.372;8.580;2022-07-29T05:37:16;23.00;93.50
32787;DHT22;19139;49.372;8.580;2022-07-29T05:39:42;23.10;93.60
32787;DHT22;19139;49.372;8.580;2022-07-29T05:42:16;23.10;93.50
32787;DHT22;19139;49.372;8.580;2022-07-29T05:44:43;23.20;93.50
32787;DHT22;19139;49.372;8.580;2022-07-29T05:47:09;23.20;93.50
32787;DHT22;19139;49.372;8.580;2022-07-29T05:49:36;23.20;93.50
32787;DHT22;19139;49.372;8.580;2022-07-29T05:52:03;23.30;93.50
32787;DHT22;19139;49.372;8.580;2022-07-29T05:54:29;23.30;93.40
32787;DHT22;19139;49.372;8.580;2022-07-29T05:56:57;23.40;93.20
32787;DHT22;19139;49.372;8.580;2022-07-29T05:59:23;23.50;93.30
32787;DHT22;19139;49.372;8.580;2022-07-29T06:01:55;23.50;93.30
32787;DHT22;19139;49.372;8.580;2022-07-29T06:04:23;23.50;93.50
32787;DHT22;19139;49.372;8.580;2022-07-29T06:06:54;23.60;93.40
32787;DHT22;19139;49.372;8.580;2022-07-29T06:09:26;23.60;93.40
32787;DHT22;19139;49.372;8.580;2022-07-29T06:11:54;23.60;93.50
32787;DHT22;19139;49.372;8.580;2022-07-29T06:14:26;23.60;93.50
32787;DHT22;19139;49.372;8.580;2022-07-29T06:16:53;23.70;93.50
32787;DHT22;19139;49.372;8.580;2022-07-29T06:19:24;23.70;93.50
32787;DHT22;19139;49.372;8.580;2022-07-29T06:21:51;23.80;93.40
32787;DHT22;19139;49.372;8.580;2022-07-29T06:24:22;23.90;93.20
32787;DHT22;19139;49.372;8.580;2022-07-29T06:26:54;23.90;93.20
32787;DHT22;19139;49.372;8.580;2022-07-29T06:29:26;24.00;93.30
32787;DHT22;19139;49.372;8.580;2022-07-29T06:31:52;24.00;93.20
32787;DHT22;19139;49.372;8.580;2022-07-29T06:34:19;24.00;93.00
32787;DHT22;19139;49.372;8.580;2022-07-29T06:36:46;24.10;93.10
32787;DHT22;19139;49.372;8.580;2022-07-29T06:39:14;24.20;93.10
32787;DHT22;19139;49.372;8.580;2022-07-29T06:41:41;24.20;93.10
32787;DHT22;19139;49.372;8.580;2022-07-29T06:44:08;24.20;93.10
32787;DHT22;19139;49.372;8.580;2022-07-29T06:46:35;24.20;93.00
32787;DHT22;19139;49.372;8.580;2022-07-29T06:49:02;24.20;93.00
32787;DHT22;19139;49.372;8.580;2022-07-29T06:51:29;24.20;93.00
32787;DHT22;19139;49.372;8.580;2022-07-29T06:53:55;24.30;93.00
32787;DHT22;19139;49.372;8.580;2022-07-29T06:56:30;24.30;92.90
32787;DHT22;19139;49.372;8.580;2022-07-29T06:59:04;24.30;92.80
32787;DHT22;19139;49.372;8.580;2022-07-29T07:01:38;24.30;92.80
32787;DHT22;19139;49.372;8.580;2022-07-29T07:04:06;24.30;92.70
32787;DHT22;19139;49.372;8.580;2022-07-29T07:06:33;24.30;92.70
32787;DHT22;19139;49.372;8.580;2022-07-29T07:09:05;24.30;92.60
32787;DHT22;19139;49.372;8.580;2022-07-29T07:11:36;24.30;92.60
32787;DHT22;19139;49.372;8.580;2022-07-29T07:14:03;24.40;92.50
32787;DHT22;19139;49.372;8.580;2022-07-29T07:16:34;24.40;92.50
32787;DHT22;19139;49.372;8.580;2022-07-29T07:19:01;24.40;92.60
32787;DHT22;19139;49.372;8.580;2022-07-29T07:21:33;24.40;92.60
32787;DHT22;19139;49.372;8.580;2022-07-29T07:24:05;24.40;92.50
32787;DHT22;19139;49.372;8.580;2022-07-29T07:26:37;24.40;92.60
32787;DHT22;19139;49.372;8.580;2022-07-29T07:29:10;24.40;92.50
32787;DHT22;19139;49.372;8.580;2022-07-29T07:31:42;24.40;92.60
32787;DHT22;19139;49.372;8.580;2022-07-29T07:34:14;24.50;92.70
32787;DHT22;19139;49.372;8.580;2022-07-29T07:36:45;24.50;92.60
32787;DHT22;19139;49.372;8.580;2022-07-29T07:39:17;24.50;92.70
32787;DHT22;19139;49.372;8.580;2022-07-29T07:41:43;24.50;92.70
32787;DHT22;19139;49.372;8.580;2022-07-29T07:44:15;24.50;92.60
32787;DHT22;19139;49.372;8.580;2022-07-29T07:46:47;24.50;92.50
32787;DHT22;19139;49.372;8.580;2022-07-29T07:49:14;24.50;92.70
32787;DHT22;19139;49.372;8.580;2022-07-29T07:51:45;24.50;92.40
32787;DHT22;19139;49.372;8.580;2022-07-29T07:54:16;24.50;92.50
32787;DHT22;19139;49.372;8.580;2022-07-29T07:56:46;24.50;92.40
32787;DHT22;19139;49.372;8.580;2022-07-29T07:59:18;24.60;92.10
32787;DHT22;19139;49.372;8.580;2022-07-29T08:01:45;24.60;92.20
32787;DHT22;19139;49.372;8.580;2022-07-29T08:04:21;24.60;92.30
32787;DHT22;19139;49.372;8.580;2022-07-29T08:06:54;24.60;92.50
32787;DHT22;19139;49.372;8.580;2022-07-29T08:09:21;24.60;92.40
32787;DHT22;19139;49.372;8.580;2022-07-29T08:11:56;24.60;92.50
32787;DHT22;19139;49.372;8.580;2022-07-29T08:14:24;24.70;92.70
32787;DHT22;19139;49.372;8.580;2022-07-29T08:16:55;24.70;92.70
32787;DHT22;19139;49.372;8.580;2022-07-29T08:19:27;24.70;92.80
32787;DHT22;19139;49.372;8.580;2022-07-29T08:21:54;24.70;92.80
32787;DHT22;19139;49.372;8.580;2022-07-29T08:24:21;24.70;92.70
32787;DHT22;19139;49.372;8.580;2022-07-29T08:27:06;24.70;92.80
32787;DHT22;19139;49.372;8.580;2022-07-29T08:29:53;24.80;93.20
32787;DHT22;19139;49.372;8.580;2022-07-29T08:32:22;24.80;92.80
32787;DHT22;19139;49.372;8.580;2022-07-29T08:34:53;24.80;92.90
32787;DHT22;19139;49.372;8.580;2022-07-29T08:37:20;24.80;93.00
32787;DHT22;19139;49.372;8.580;2022-07-29T08:39:46;24.80;93.10
32787;DHT22;19139;49.372;8.580;2022-07-29T08:42:13;24.80;93.20
32787;DHT22;19139;49.372;8.580;2022-07-29T08:44:40;24.80;93.10
32787;DHT22;19139;49.372;8.580;2022-07-29T08:47:06;24.90;93.30
32787;DHT22;19139;49.372;8.580;2022-07-29T08:49:34;24.90;93.50
32787;DHT22;19139;49.372;8.580;2022-07-29T08:52:02;24.90;93.50
32787;DHT22;19139;49.372;8.580;2022-07-29T08:54:29;24.90;93.60
32787;DHT22;19139;49.372;8.580;2022-07-29T08:57:02;24.90;93.60
32787;DHT22;19139;49.372;8.580;2022-07-29T08:59:34;24.90;93.70
32787;DHT22;19139;49.372;8.580;2022-07-29T09:02:11;25.00;93.70
32787;DHT22;19139;49.372;8.580;2022-07-29T09:04:44;25.00;93.70
32787;DHT22;19139;49.372;8.580;2022-07-29T09:07:18;25.00;93.70
32787;DHT22;19139;49.372;8.580;2022-07-29T09:09:44;25.00;93.70
32787;DHT22;19139;49.372;8.580;2022-07-29T09:12:16;25.00;93.70
32787;DHT22;19139;49.372;8.580;2022-07-29T09:14:55;25.00;93.70
32787;DHT22;19139;49.372;8.580;2022-07-29T09:17:40;25.00;93.60
32787;DHT22;19139;49.372;8.580;2022-07-29T09:20:09;25.00;93.60
32787;DHT22;19139;49.372;8.580;2022-07-29T09:22:36;25.00;93.60
32787;DHT22;19139;49.372;8.580;2022-07-29T09:25:08;25.00;93.60
32787;DHT22;19139;49.372;8.580;2022-07-29T09:27:34;25.00;93.50
32787;DHT22;19139;49.372;8.580;2022-07-29T09:30:08;25.10;93.40
32787;DHT22;19139;49.372;8.580;2022-07-29T09:32:57;25.00;93.30
32787;DHT22;19139;49.372;8.580;2022-07-29T09:35:25;25.00;93.20
32787;DHT22;19139;49.372;8.580;2022-07-29T09:37:53;25.10;93.10
32787;DHT22;19139;49.372;8.580;2022-07-29T09:40:22;25.10;93.10
32787;DHT22;19139;49.372;8.580;2022-07-29T09:42:49;25.10;93.10
32787;DHT22;19139;49.372;8.580;2022-07-29T09:45:36;25.10;93.00
32787;DHT22;19139;49.372;8.580;2022-07-29T09:48:16;25.10;93.10
32787;DHT22;19139;49.372;8.580;2022-07-29T09:50:45;25.10;93.00
32787;DHT22;19139;49.372;8.580;2022-07-29T09:53:33;25.10;92.90
32787;DHT22;19139;49.372;8.580;2022-07-29T09:56:00;25.20;92.90
32787;DHT22;19139;49.372;8.580;2022-07-29T09:58:32;25.10;92.90
32787;DHT22;19139;49.372;8.580;2022-07-29T10:01:04;25.20;92.90
32787;DHT22;19139;49.372;8.580;2022-07-29T10:03:52;25.20;92.80
32787;DHT22;19139;49.372;8.580;2022-07-29T10:06:24;25.20;92.80
32787;DHT22;19139;49.372;8.580;2022-07-29T10:09:07;25.20;92.80
32787;DHT22;19139;49.372;8.580;2022-07-29T10:11:34;25.20;92.70
32787;DHT22;19139;49.372;8.580;2022-07-29T10:14:06;25.20;92.70
32787;DHT22;19139;49.372;8.580;2022-07-29T10:16:36;25.20;92.70
32787;DHT22;19139;49.372;8.580;2022-07-29T10:19:02;25.20;92.60
32787;DHT22;19139;49.372;8.580;2022-07-29T10:21:34;25.20;92.60
32787;DHT22;19139;49.372;8.580;2022-07-29T10:24:02;25.20;92.60
32787;DHT22;19139;49.372;8.580;2022-07-29T10:26:30;25.20;92.60
32787;DHT22;19139;49.372;8.580;2022-07-29T10:28:57;25.30;92.70
32787;DHT22;19139;49.372;8.580;2022-07-29T10:31:29;25.20;92.60
32787;DHT22;19139;49.372;8.580;2022-07-29T10:34:13;25.30;92.60
32787;DHT22;19139;49.372;8.580;2022-07-29T10:36:54;25.30;92.50
32787;DHT22;19139;49.372;8.580;2022-07-29T10:40:00;25.30;92.50
32787;DHT22;19139;49.372;8.580;2022-07-29T10:42:52;25.30;92.40
32787;DHT22;19139;49.372;8.580;2022-07-29T10:45:21;25.30;92.40
32787;DHT22;19139;49.372;8.580;2022-07-29T10:47:48;25.30;92.40
32787;DHT22;19139;49.372;8.580;2022-07-29T10:50:14;25.30;92.40
32787;DHT22;19139;49.372;8.580;2022-07-29T10:55:35;25.30;92.40
32787;DHT22;19139;49.372;8.580;2022-07-29T10:58:12;25.30;92.40
32787;DHT22;19139;49.372;8.580;2022-07-29T11:00:39;25.30;92.30
32787;DHT22;19139;49.372;8.580;2022-07-29T11:03:06;25.30;92.30
32787;DHT22;19139;49.372;8.580;2022-07-29T11:05:53;25.30;92.40
32787;DHT22;19139;49.372;8.580;2022-07-29T11:08:21;25.30;92.40
32787;DHT22;19139;49.372;8.580;2022-07-29T11:13:52;25.40;92.40
32787;DHT22;19139;49.372;8.580;2022-07-29T11:16:22;25.30;92.40
32787;DHT22;19139;49.372;8.580;2022-07-29T11:21:44;25.40;92.40
32787;DHT22;19139;49.372;8.580;2022-07-29T11:24:31;25.40;92.30
32787;DHT22;19139;49.372;8.580;2022-07-29T11:27:10;25.40;92.30
32787;DHT22;19139;49.372;8.580;2022-07-29T11:29:50;25.40;92.20
32787;DHT22;19139;49.372;8.580;2022-07-29T11:32:20;25.40;92.20
32787;DHT22;19139;49.372;8.580;2022-07-29T11:35:09;25.40;92.10
32787;DHT22;19139;49.372;8.580;2022-07-29T11:37:47;25.40;92.10
32787;DHT22;19139;49.372;8.580;2022-07-29T11:40:33;25.50;92.10
32787;DHT22;19139;49.372;8.580;2022-07-29T11:43:01;25.50;92.10
32787;DHT22;19139;49.372;8.580;2022-07-29T11:45:46;25.50;92.10
32787;DHT22;19139;49.372;8.580;2022-07-29T11:48:16;25.50;92.00
32787;DHT22;19139;49.372;8.580;2022-07-29T11:51:09;25.50;92.00
32787;DHT22;19139;49.372;8.580;2022-07-29T11:53:47;25.50;92.00
32787;DHT22;19139;49.372;8.580;2022-07-29T11:56:21;25.50;92.00
32787;DHT22;19139;49.372;8.580;2022-07-29T11:59:00;25.50;92.00
32787;DHT22;19139;49.372;8.580;2022-07-29T12:01:27;25.50;92.00
32787;DHT22;19139;49.372;8.580;2022-07-29T12:04:03;25.50;92.00
32787;DHT22;19139;49.372;8.580;2022-07-29T12:06:33;25.50;92.00
32787;DHT22;19139;49.372;8.580;2022-07-29T12:09:00;25.50;92.00
32787;DHT22;19139;49.372;8.580;2022-07-29T12:11:36;25.50;91.90
32787;DHT22;19139;49.372;8.580;2022-07-29T12:14:05;25.50;91.90
32787;DHT22;19139;49.372;8.580;2022-07-29T12:16:36;25.50;91.90
32787;DHT22;19139;49.372;8.580;2022-07-29T12:19:06;25.50;91.90
32787;DHT22;19139;49.372;8.580;2022-07-29T12:22:03;25.50;91.90
32787;DHT22;19139;49.372;8.580;2022-07-29T12:24:43;25.50;91.80
32787;DHT22;19139;49.372;8.580;2022-07-29T12:27:10;25.50;91.80
32787;DHT22;19139;49.372;8.580;2022-07-29T12:29:39;25.50;91.80
32787;DHT22;19139;49.372;8.580;2022-07-29T12:32:13;25.50;91.70
32787;DHT22;19139;49.372;8.580;2022-07-29T12:34:45;25.50;91.80
32787;DHT22;19139;49.372;8.580;2022-07-29T12:37:12;25.50;91.70
32787;DHT22;19139;49.372;8.580;2022-07-29T12:39:39;25.50;91.80
32787;DHT22;19139;49.372;8.580;2022-07-29T12:42:15;25.60;91.70
32787;DHT22;19139;49.372;8.580;2022-07-29T12:44:46;25.60;91.70
32787;DHT22;19139;49.372;8.580;2022-07-29T12:47:19;25.60;91.60
32787;DHT22;19139;49.372;8.580;2022-07-29T12:50:08;25.60;91.60
32787;DHT22;19139;49.372;8.580;2022-07-29T12:52:40;25.60;91.60
32787;DHT22;19139;49.372;8.580;2022-07-29T12:55:11;25.70;91.70
32787;DHT22;19139;49.372;8.580;2022-07-29T12:57:47;25.70;91.80
32787;DHT22;19139;49.372;8.580;2022-07-29T13:00:15;25.70;91.80
32787;DHT22;19139;49.372;8.580;2022-07-29T13:02:42;25.60;91.70
32787;DHT22;19139;49.372;8.580;2022-07-29T13:05:14;25.70;91.80
32787;DHT22;19139;49.372;8.580;2022-07-29T13:07:41;25.70;91.70
32787;DHT22;19139;49.372;8.580;2022-07-29T13:10:22;25.70;91.60
32787;DHT22;19139;49.372;8.580;2022-07-29T13:13:03;25.70;91.50
32787;DHT22;19139;49.372;8.580;2022-07-29T13:15:30;25.70;91.50
32787;DHT22;19139;49.372;8.580;2022-07-29T13:17:57;25.70;91.50
32787;DHT22;19139;49.372;8.580;2022-07-29T13:20:29;25.70;91.40
32787;DHT22;19139;49.372;8.580;2022-07-29T13:23:00;25.70;91.40
32787;DHT22;19139;49.372;8.580;2022-07-29T13:25:29;25.70;91.30
32787;DHT22;19139;49.372;8.580;2022-07-29T13:27:57;25.70;91.20
32787;DHT22;19139;49.372;8.580;2022-07-29T13:30:29;25.70;91.60
32787;DHT22;19139;49.372;8.580;2022-07-29T13:32:55;25.70;91.30
32787;DHT22;19139;49.372;8.580;2022-07-29T13:35:27;25.80;91.30
32787;DHT22;19139;49.372;8.580;2022-07-29T13:37:55;25.70;91.30
32787;DHT22;19139;49.372;8.580;2022-07-29T13:40:27;25.80;91.30
32787;DHT22;19139;49.372;8.580;2022-07-29T13:43:00;25.80;91.30
32787;DHT22;19139;49.372;8.580;2022-07-29T13:45:27;25.80;91.30
32787;DHT22;19139;49.372;8.580;2022-07-29T13:47:58;25.80;91.30
32787;DHT22;19139;49.372;8.580;2022-07-29T13:50:30;25.80;91.20
32787;DHT22;19139;49.372;8.580;2022-07-29T13:52:56;25.80;91.20
32787;DHT22;19139;49.372;8.580;2022-07-29T13:55:28;25.80;91.20
32787;DHT22;19139;49.372;8.580;2022-07-29T13:57:59;25.80;91.20
32787;DHT22;19139;49.372;8.580;2022-07-29T14:00:29;25.80;91.20
32787;DHT22;19139;49.372;8.580;2022-07-29T14:02:56;25.90;91.30
32787;DHT22;19139;49.372;8.580;2022-07-29T14:05:28;25.90;91.30
32787;DHT22;19139;49.372;8.580;2022-07-29T14:07:59;25.90;91.30
32787;DHT22;19139;49.372;8.580;2022-07-29T14:10:26;25.90;91.30
32787;DHT22;19139;49.372;8.580;2022-07-29T14:12:58;25.90;91.20
32787;DHT22;19139;49.372;8.580;2022-07-29T14:15:29;25.90;91.10
32787;DHT22;19139;49.372;8.580;2022-07-29T14:17:56;25.90;91.00
32787;DHT22;19139;49.372;8.580;2022-07-29T14:20:27;26.00;91.00
32787;DHT22;19139;49.372;8.580;2022-07-29T14:22:56;25.90;90.90
32787;DHT22;19139;49.372;8.580;2022-07-29T14:25:27;25.90;90.90
32787;DHT22;19139;49.372;8.580;2022-07-29T14:27:54;26.00;90.80
32787;DHT22;19139;49.372;8.580;2022-07-29T14:30:24;25.90;90.70
32787;DHT22;19139;49.372;8.580;2022-07-29T14:32:50;26.00;90.70
32787;DHT22;19139;49.372;8.580;2022-07-29T14:35:17;26.00;90.60
32787;DHT22;19139;49.372;8.580;2022-07-29T14:37:48;26.00;90.50
32787;DHT22;19139;49.372;8.580;2022-07-29T14:40:20;26.00;90.40
32787;DHT22;19139;49.372;8.580;2022-07-29T14:42:47;26.00;90.40
32787;DHT22;19139;49.372;8.580;2022-07-29T14:45:18;26.00;90.40
32787;DHT22;19139;49.372;8.580;2022-07-29T14:47:50;26.00;90.30
32787;DHT22;19139;49.372;8.580;2022-07-29T14:50:22;26.00;90.30
32787;DHT22;19139;49.372;8.580;2022-07-29T14:52:57;26.10;90.20
32787;DHT22;19139;49.372;8.580;2022-07-29T14:55:29;26.00;90.10
32787;DHT22;19139;49.372;8.580;2022-07-29T14:57:55;26.00;90.10
32787;DHT22;19139;49.372;8.580;2022-07-29T15:00:35;26.00;90.10
32787;DHT22;19139;49.372;8.580;2022-07-29T15:03:04;26.10;90.10
32787;DHT22;19139;49.372;8.580;2022-07-29T15:05:31;26.00;90.00
32787;DHT22;19139;49.372;8.580;2022-07-29T15:07:59;26.10;90.00
32787;DHT22;19139;49.372;8.580;2022-07-29T15:10:25;26.10;90.00
32787;DHT22;19139;49.372;8.580;2022-07-29T15:12:54;26.10;90.00
32787;DHT22;19139;49.372;8.580;2022-07-29T15:15:26;26.10;90.00
32787;DHT22;19139;49.372;8.580;2022-07-29T15:17:57;26.10;89.70
32787;DHT22;19139;49.372;8.580;2022-07-29T15:20:29;26.10;89.50
32787;DHT22;19139;49.372;8.580;2022-07-29T15:22:56;26.10;89.50
32787;DHT22;19139;49.372;8.580;2022-07-29T15:25:23;26.20;89.70
32787;DHT22;19139;49.372;8.580;2022-07-29T15:27:55;26.10;89.70
32787;DHT22;19139;49.372;8.580;2022-07-29T15:30:27;26.10;89.70
32787;DHT22;19139;49.372;8.580;2022-07-29T15:32:59;26.10;89.30
32787;DHT22;19139;49.372;8.580;2022-07-29T15:35:26;26.10;89.00
32787;DHT22;19139;49.372;8.580;2022-07-29T15:37:58;26.10;88.90
32787;DHT22;19139;49.372;8.580;2022-07-29T15:40:25;26.10;88.70
32787;DHT22;19139;49.372;8.580;2022-07-29T15:42:51;26.10;88.70
32787;DHT22;19139;49.372;8.580;2022-07-29T15:45:18;26.10;88.70
32787;DHT22;19139;49.372;8.580;2022-07-29T15:47:49;26.10;88.70
32787;DHT22;19139;49.372;8.580;2022-07-29T15:50:16;26.10;88.00
32787;DHT22;19139;49.372;8.580;2022-07-29T15:52:44;26.20;87.20
32787;DHT22;19139;49.372;8.580;2022-07-29T15:55:10;26.20;87.40
32787;DHT22;19139;49.372;8.580;2022-07-29T15:57:37;26.20;87.50
32787;DHT22;19139;49.372;8.580;2022-07-29T16:00:09;26.20;87.70
32787;DHT22;19139;49.372;8.580;2022-07-29T16:02:36;26.20;88.10
32787;DHT22;19139;49.372;8.580;2022-07-29T16:05:08;26.20;88.30
32787;DHT22;19139;49.372;8.580;2022-07-29T16:07:36;26.10;88.50
32787;DHT22;19139;49.372;8.580;2022-07-29T16:10:08;26.10;88.50
32787;DHT22;19139;49.372;8.580;2022-07-29T16:12:39;26.20;88.70
32787;DHT22;19139;49.372;8.580;2022-07-29T16:15:06;26.20;88.80